Terminal Aerodrome Forecast
Issued by NWS Melbourne, FL

Home | Current Version | Previous Version | Text Only | Print | Product List | Glossary On
Versions: 1 2 3 4 5 6 7 8 9 10 11 12 13 14 15 16 17 18 19 20 21 22 23 24 25 26 27 28
193
FTUS42 KMLB 092045 AAA
TAFMCO
TAF AMD
KMCO 092045Z 0921/1018 02013G20KT P6SM FEW035 SCT200
     FM100000 36013KT P6SM FEW035 SCT150 BKN250
     FM100600 36010KT P6SM FEW035 BKN250
     FM101400 03013G19KT P6SM BKN040=

USA.gov is the U.S. government's official web portal to all federal, state and local government web resources and services.